Meteo Giornale » Osservazioni meteo Argentina » Bahia Blanca Aerodrome
ore: 04:00 - Osservazioni Meteo Bahia Blanca Aerodrome
Lat. 38° 44' S Lon. 62° 10' W Alt. 75 metri s.l.m.
2 °C
Sereno
Temp. 24 Ore
1 °C
20 °C
Nord/NOvest
13 Km/h
Dew point -1 °C
Umidità 80 %
Visibilità 10 Km
Il sole sorge alle ore 07:30
Il sole tramonta alle ore 18:46
| Data e Ora | Cielo e Fenomeni | T °C | DP °C | Um. % | Pres. hPa | Vis. km | Vento km/h | |
|---|---|---|---|---|---|---|---|---|
| Oggi h: 04:00 | Sereno | 2 | -1 | 80 | 1020 | 10 | N/NO 13 | |
| Oggi h: 03:00 | Sereno | 2 | -1 | 80 | 1020 | 10 | N 14.8 | |
| Oggi h: 02:00 | Sereno | 3 | -1 | 74 | 1020 | 10 | N 14.8 | |
| Oggi h: 01:00 | Sereno | 1 | -1 | 86 | 1020 | 10 | N 14.8 | |
| Oggi h: 00:00 | Sereno | 2 | 0 | 86 | 1021 | 10 | N 11.1 | |
| Ieri h: 23:00 | Sereno | 3 | 2 | 93 | 1021 | 10 | N/NE 16.7 | |
| Ieri h: 22:00 | Sereno | 4 | 2 | 86 | 1021 | 10 | N/NE 13 | |
| Ieri h: 21:00 | Sereno | 5 | 2 | 80 | 1021 | 10 | NE 13 | |
| Ieri h: 20:00 | Sereno | 6 | 4 | 86 | 1020 | 10 | E/NE 14.8 | |
| Ieri h: 19:00 | Sereno | 10 | 5 | 71 | 1019 | 10 | E 9.3 | |
| Ieri h: 18:00 | Sereno | 14 | 5 | 54 | 1018 | 10 | SE 11.1 | |
| Ieri h: 17:00 | Sereno | 18 | -5 | 20 | 1018 | 10 | S/SO 14.8 | |
| Ieri h: 16:00 | Sereno | 19 | -6 | 17 | 1017 | 10 | SO 22.2 | |
| Ieri h: 15:00 | Sereno | 20 | -4 | 19 | 1017 | 10 | SO 24 | |
| Ieri h: 14:00 | Sereno | 19 | 0 | 27 | 1017 | 10 | SO 29.6 | |
| Ieri h: 13:00 | Sereno | 18 | -1 | 27 | 1018 | 0 | SO 25.9 | |
| Ieri h: 12:00 | Sereno | 17 | -1 | 29 | 1018 | 10 | SO 20.3 | |
| Ieri h: 11:00 | Sereno | 15 | 3 | 44 | 1017 | 10 | S/SO 24 | |
| Ieri h: 10:00 | Sereno | 14 | 8 | 67 | 1017 | 10 | O/SO 16.7 | |
| Ieri h: 09:00 | Sereno | 12 | 8 | 76 | 1016 | 10 | O 16.7 | |
| Ieri h: 08:00 | Sereno | 12 | 8 | 76 | 1015 | 10 | NO 14.8 | |
| Ieri h: 07:00 | Pioggia | 11 | 7 | 76 | 1014 | 10 | N/NO 14.8 | |
| Ieri h: 06:00 | Sereno | 10 | 7 | 81 | 1014 | 10 | O/NO 9.3 | |
| Ieri h: 05:00 | Sereno | 9 | 7 | 87 | 1013 | 10 | N 1.8 | |



